الصفحة الرئيسية
METAR-TAF:

METAR-TAF

مطار :

يانغون, بورما

دائرة عرض: 16-46N, خط طول: 096-10E, ارتفاع: 14 متر

مراقبة الطقس الحالي

تاريخ ووقت الإصدار 27 دقيقة قبل الساعة 18:30UTC
ريح 3 عقدة من الجنوب
درجة الحرارة 29°درجة مئوية
الرطوبة 70%
ضغط 1006 hPa
الرؤية: 6000 متر
غيوم قليلة على ارتفاع 2000 قدم

METAR: VYYY 221830Z 19003KT 6000 FEW020 29/23 Q1006

زمن: 01:27 (18:57 UTC)

توقعات

تاريخ ووقت الإصدار 1ساعة و 57 دقيقة قبل الساعة 17:00UTC
التوقعات صالحة من22 الساعة 18 UTC إلى 23 الساعة 18 UTC
ريح 5 عقدة من الجنوب/الجنوب الغربي
الرؤية: 8000 متر
غيوم متفرقة على ارتفاع 1800 قدم
غيوم متفرقة على ارتفاع 12000 قدم
مؤقت
من 22 الساعة 18 UTC إلى 22 الساعة 23 UTC
الرؤية: 7000 متر
غيوم مفككة على ارتفاع 1800 قدم
مؤقت
من 22 الساعة 23 UTC إلى 23 الساعة 02 UTC
الرؤية: 6000 متر
العجاج

TAF: VYYY 221700Z 2218/2318 21005KT 8000 SCT018 SCT120 TEMPO 2218/2223 7000 BKN018 TEMPO 2223/2302 6000 HZ

أرصاد الطقس والتوقعات من أكثر من 4000 مطار (تقارير الطقس للمطار METAR والتنبؤ بالطقس بالمطارTAF).

المحطات المتاحة هي النقط الصفراء والحمراء على الخريطة.

حرك المؤشر فوق النقطة لمعرفة اسم المحطة.

ثم انقر لمعرفة أرصاد وتوقعات الطقس.

لتغيير الخارطة: اضغط على الأزرار الخضراء مع رمز الصليب الأسود للتكبير. على الزر الأخضر مع شرطة للتصغير، أو على الأسهم الخضراء للخرائط المجاورة.


METAR-TAF: